createdAt,value
2023-02-03T00:01:49.619Z,8.17
2023-02-03T00:04:16.149Z,9.63
2023-02-03T00:06:42.743Z,5.77
2023-02-03T00:09:09.422Z,7.67
2023-02-03T00:11:36.081Z,8.17
2023-02-03T00:14:03.434Z,5.47
2023-02-03T00:16:29.927Z,7.17
2023-02-03T00:18:56.347Z,5.50
2023-02-03T00:21:22.854Z,5.50
2023-02-03T00:23:49.223Z,7.40
2023-02-03T00:26:17.315Z,6.63
2023-02-03T00:28:44.938Z,5.33
2023-02-03T00:31:19.199Z,4.80
2023-02-03T00:33:46.507Z,4.77
2023-02-03T00:36:13.380Z,5.10
2023-02-03T00:38:39.888Z,4.23
2023-02-03T00:41:07.008Z,4.83
2023-02-03T00:43:33.518Z,5.40
2023-02-03T00:46:00.344Z,5.17
2023-02-03T00:48:26.967Z,5.37
2023-02-03T00:50:53.516Z,5.43
2023-02-03T00:53:19.944Z,5.47
2023-02-03T00:55:47.100Z,5.37
2023-02-03T00:58:13.496Z,5.47
2023-02-03T01:00:39.981Z,3.10
2023-02-03T01:03:06.700Z,3.20
2023-02-03T01:05:33.254Z,4.63
2023-02-03T01:08:00.979Z,5.30
2023-02-03T01:10:29.139Z,3.87
2023-02-03T01:12:56.195Z,4.47
2023-02-03T01:15:22.653Z,4.40
2023-02-03T01:17:49.103Z,4.40
2023-02-03T01:20:17.640Z,3.27
2023-02-03T01:22:44.138Z,3.87
2023-02-03T01:25:10.895Z,4.50
2023-02-03T01:27:37.457Z,4.57
2023-02-03T01:30:04.521Z,4.90
2023-02-03T01:32:31.003Z,5.23
2023-02-03T01:34:57.474Z,2.80
2023-02-03T01:37:23.958Z,3.27
2023-02-03T01:39:50.390Z,4.07
2023-02-03T01:42:16.800Z,3.50
2023-02-03T01:44:44.969Z,5.47
2023-02-03T01:47:36.456Z,3.17
2023-02-03T01:50:11.381Z,2.83
2023-02-03T01:52:40.729Z,3.23
2023-02-03T01:55:10.736Z,2.93
2023-02-03T01:57:47.159Z,2.27
2023-02-03T02:00:14.696Z,3.13
2023-02-03T02:02:44.854Z,2.40
2023-02-03T02:05:22.605Z,2.20
2023-02-03T02:07:49.746Z,2.57
2023-02-03T02:10:16.605Z,2.10
2023-02-03T02:12:43.273Z,3.43
2023-02-03T02:15:10.299Z,2.60
2023-02-03T02:18:13.252Z,2.70
2023-02-03T02:21:11.694Z,2.63
2023-02-03T02:24:12.733Z,2.63
2023-02-03T02:26:48.106Z,2.33
2023-02-03T02:29:49.194Z,2.33
2023-02-03T02:32:36.784Z,3.10
2023-02-03T02:35:16.893Z,3.00
2023-02-03T02:37:49.140Z,3.07
2023-02-03T02:40:32.935Z,2.70
2023-02-03T02:43:08.742Z,2.20
2023-02-03T02:45:50.967Z,2.20
2023-02-03T02:48:26.711Z,2.70
2023-02-03T02:50:56.404Z,3.77
2023-02-03T02:53:26.689Z,2.50
2023-02-03T02:55:57.029Z,3.37
2023-02-03T02:58:24.760Z,2.30
2023-02-03T03:00:51.576Z,4.80
2023-02-03T03:03:23.935Z,2.67
2023-02-03T03:06:08.040Z,2.90
2023-02-03T03:09:00.232Z,3.77
2023-02-03T03:11:31.394Z,4.43
2023-02-03T03:13:59.733Z,2.60
2023-02-03T03:16:30.543Z,3.47
2023-02-03T03:19:01.856Z,2.83
2023-02-03T03:21:37.745Z,2.60
2023-02-03T03:24:08.735Z,3.20
2023-02-03T03:27:14.156Z,3.03
2023-02-03T03:30:02.525Z,4.93
2023-02-03T03:32:32.937Z,4.57
2023-02-03T03:35:01.747Z,5.50
2023-02-03T03:37:35.725Z,3.80
2023-02-03T03:40:24.036Z,5.63
2023-02-03T03:42:57.209Z,4.97
2023-02-03T03:45:29.496Z,5.20
2023-02-03T03:48:18.581Z,7.70
2023-02-03T03:50:51.436Z,5.37
2023-02-03T03:53:19.729Z,6.13
2023-02-03T03:55:51.423Z,6.13
2023-02-03T03:58:25.528Z,5.13
2023-02-03T04:00:54.331Z,5.63
2023-02-03T04:03:25.439Z,6.73
2023-02-03T04:05:53.195Z,4.73
2023-02-03T04:08:19.661Z,6.00
2023-02-03T04:10:46.419Z,8.80
2023-02-03T04:13:12.948Z,10.83
2023-02-03T04:15:39.347Z,7.53
2023-02-03T04:18:06.552Z,6.70
2023-02-03T04:20:33.499Z,7.67
2023-02-03T04:23:00.508Z,6.17
2023-02-03T04:25:27.317Z,8.17
2023-02-03T04:27:55.261Z,6.17
2023-02-03T04:30:21.916Z,4.70
2023-02-03T04:32:48.977Z,6.87
2023-02-03T04:35:15.401Z,7.60
2023-02-03T04:37:41.929Z,6.30
2023-02-03T04:40:09.524Z,6.20
2023-02-03T04:42:40.209Z,6.03
2023-02-03T04:45:08.695Z,8.23
2023-02-03T04:47:36.576Z,9.47
2023-02-03T04:50:03.397Z,7.00
2023-02-03T04:52:29.835Z,5.37
2023-02-03T04:54:56.334Z,5.77
2023-02-03T04:57:22.781Z,5.30
2023-02-03T04:59:49.321Z,7.53
2023-02-03T05:02:15.889Z,4.70
2023-02-03T05:04:42.308Z,7.57
2023-02-03T05:07:09.659Z,5.93
2023-02-03T05:09:36.210Z,3.97
2023-02-03T05:12:02.693Z,5.87
2023-02-03T05:14:29.145Z,5.27
2023-02-03T05:16:55.619Z,5.90
2023-02-03T05:19:22.070Z,5.80
2023-02-03T05:21:48.571Z,3.73
2023-02-03T05:24:15.001Z,5.83
2023-02-03T05:26:41.422Z,5.67
2023-02-03T05:29:07.900Z,4.27
2023-02-03T05:31:35.069Z,3.83
2023-02-03T05:34:01.571Z,3.47
2023-02-03T05:36:27.989Z,3.40
2023-02-03T05:38:54.467Z,3.83
2023-02-03T05:41:39.729Z,4.73
2023-02-03T05:44:06.998Z,5.40
2023-02-03T05:46:33.413Z,3.97
2023-02-03T05:48:59.861Z,4.20
2023-02-03T05:51:26.353Z,4.23
2023-02-03T05:53:53.721Z,3.90
2023-02-03T05:56:20.189Z,5.83
2023-02-03T05:58:46.688Z,16.90
2023-02-03T06:01:13.099Z,9.13
2023-02-03T06:03:39.890Z,8.67
2023-02-03T06:06:06.435Z,4.60
2023-02-03T06:08:32.859Z,6.40
2023-02-03T06:11:00.694Z,7.07
2023-02-03T06:13:27.257Z,6.57
2023-02-03T06:15:54.393Z,8.43
2023-02-03T06:18:21.102Z,2.53
2023-02-03T06:20:47.590Z,5.43
2023-02-03T06:23:14.026Z,3.10
2023-02-03T06:25:40.431Z,2.57
2023-02-03T06:28:06.896Z,3.87
2023-02-03T06:30:34.108Z,4.23
2023-02-03T06:33:00.828Z,3.30
2023-02-03T06:35:27.332Z,2.30
2023-02-03T06:37:53.839Z,3.47
2023-02-03T06:40:20.572Z,3.93
2023-02-03T06:42:48.196Z,4.13
2023-02-03T06:45:15.340Z,4.53
2023-02-03T06:47:42.731Z,4.77
2023-02-03T06:50:11.408Z,4.10
2023-02-03T06:52:39.015Z,2.53
2023-02-03T06:55:06.486Z,3.00
2023-02-03T06:57:33.387Z,3.33
2023-02-03T07:00:00.010Z,3.27
2023-02-03T07:02:26.490Z,3.90
2023-02-03T07:04:52.874Z,4.07
2023-02-03T07:10:37.037Z,2.60
2023-02-03T07:13:06.101Z,4.00
2023-02-03T07:15:32.800Z,3.57
2023-02-03T07:17:59.775Z,1.80
2023-02-03T07:20:28.969Z,3.43
2023-02-03T07:22:57.259Z,2.77
2023-02-03T07:25:25.341Z,2.73
2023-02-03T07:27:52.235Z,3.47
2023-02-03T07:30:18.908Z,3.17
2023-02-03T07:32:53.077Z,6.00
2023-02-03T07:35:20.419Z,2.57
2023-02-03T07:37:46.968Z,2.87
2023-02-03T07:40:14.441Z,7.73
2023-02-03T07:42:46.183Z,3.33
2023-02-03T07:45:14.857Z,3.00
2023-02-03T07:47:42.603Z,2.20
2023-02-03T07:50:11.170Z,4.70
2023-02-03T07:52:38.170Z,3.67
2023-02-03T07:55:05.303Z,4.50
2023-02-03T07:57:32.884Z,3.97
2023-02-03T07:59:59.298Z,2.90
2023-02-03T08:02:26.206Z,3.40
2023-02-03T08:04:52.982Z,3.50
2023-02-03T08:07:19.444Z,4.07
2023-02-03T08:09:45.925Z,3.97
2023-02-03T08:12:12.444Z,3.37
2023-02-03T08:14:39.064Z,5.77
2023-02-03T08:17:05.484Z,4.23
2023-02-03T08:19:31.929Z,4.20
2023-02-03T08:21:59.550Z,2.93
2023-02-03T08:24:26.213Z,5.70
2023-02-03T08:26:53.053Z,3.07
2023-02-03T08:29:19.898Z,2.80
2023-02-03T08:31:46.502Z,1.87
2023-02-03T08:34:13.811Z,2.47
2023-02-03T08:36:40.217Z,2.20
2023-02-03T08:39:07.057Z,2.90
2023-02-03T08:41:34.274Z,3.10
2023-02-03T08:44:01.398Z,2.57
2023-02-03T08:46:28.549Z,2.20
2023-02-03T08:48:57.369Z,2.17
2023-02-03T08:51:24.622Z,2.30
2023-02-03T08:53:51.110Z,3.10
2023-02-03T08:56:17.946Z,2.60
2023-02-03T08:58:44.369Z,2.23
2023-02-03T09:01:13.902Z,2.10
2023-02-03T09:03:41.187Z,2.50
2023-02-03T09:06:09.289Z,2.27
2023-02-03T09:08:35.833Z,3.70
2023-02-03T09:11:02.287Z,4.40
2023-02-03T09:13:29.047Z,3.90
2023-02-03T09:15:55.459Z,3.87
2023-02-03T09:18:21.887Z,4.90
2023-02-03T09:20:48.353Z,3.43
2023-02-03T09:23:15.150Z,2.80
2023-02-03T09:25:43.721Z,2.40
2023-02-03T09:28:12.494Z,2.20
2023-02-03T09:30:39.093Z,2.60
2023-02-03T09:33:05.633Z,3.10
2023-02-03T09:35:32.054Z,3.90
2023-02-03T09:37:59.651Z,4.23
2023-02-03T09:40:31.143Z,3.23
2023-02-03T09:43:46.347Z,6.47
2023-02-03T09:46:16.433Z,2.63
2023-02-03T09:48:53.068Z,2.53
2023-02-03T09:51:27.788Z,8.20
2023-02-03T09:54:04.185Z,8.83
2023-02-03T09:56:34.624Z,4.40
2023-02-03T09:59:01.566Z,5.57
2023-02-03T10:01:55.410Z,7.03
2023-02-03T10:04:37.861Z,6.60
2023-02-03T10:07:25.201Z,11.20
2023-02-03T10:10:03.291Z,3.07
2023-02-03T10:13:01.219Z,6.67
2023-02-03T10:15:42.793Z,4.33
2023-02-03T10:18:16.727Z,4.73
2023-02-03T10:20:47.755Z,2.57
2023-02-03T10:23:23.276Z,2.23
2023-02-03T10:25:57.831Z,2.33
2023-02-03T10:28:31.332Z,2.90
2023-02-03T10:31:01.029Z,1.37
2023-02-03T10:33:31.364Z,1.73
2023-02-03T10:36:31.760Z,2.73
2023-02-03T10:39:27.778Z,1.23
2023-02-03T10:41:54.673Z,1.60
2023-02-03T10:44:24.369Z,1.60
2023-02-03T10:46:51.363Z,2.03
2023-02-03T10:49:19.066Z,1.17
2023-02-03T10:51:50.464Z,1.30
2023-02-03T10:54:47.392Z,2.17
2023-02-03T10:57:16.055Z,1.63
2023-02-03T10:59:45.585Z,1.10
2023-02-03T11:02:31.114Z,1.47
2023-02-03T11:05:21.021Z,2.63
2023-02-03T11:07:48.199Z,1.47
2023-02-03T11:10:37.759Z,1.90
2023-02-03T11:13:17.177Z,1.20
2023-02-03T11:16:10.786Z,1.07
2023-02-03T11:18:52.078Z,1.70
2023-02-03T11:21:37.066Z,0.90
2023-02-03T11:24:09.394Z,0.50
2023-02-03T11:26:42.153Z,1.30
2023-02-03T11:29:18.412Z,1.20
2023-02-03T11:31:50.182Z,0.93
2023-02-03T11:34:24.064Z,0.50
2023-02-03T11:36:50.614Z,0.90
2023-02-03T11:39:25.758Z,3.13
2023-02-03T11:41:53.209Z,2.63
2023-02-03T11:44:26.200Z,12.70
2023-02-03T11:47:01.506Z,4.33
2023-02-03T11:50:04.915Z,8.03
2023-02-03T11:52:37.168Z,7.43
2023-02-03T11:55:25.549Z,3.30
2023-02-03T11:58:14.033Z,8.03
2023-02-03T12:01:05.405Z,3.00
2023-02-03T12:03:56.511Z,8.63
2023-02-03T12:07:01.309Z,8.50
2023-02-03T12:09:46.692Z,9.50
2023-02-03T12:12:15.833Z,4.70
2023-02-03T12:15:03.744Z,2.20
2023-02-03T12:17:50.506Z,5.70
2023-02-03T12:20:52.732Z,7.00
2023-02-03T12:23:31.243Z,9.67
2023-02-03T12:26:20.622Z,2.07
2023-02-03T12:29:13.214Z,11.00
2023-02-03T12:31:46.609Z,4.27
2023-02-03T12:34:17.845Z,3.00
2023-02-03T12:37:03.071Z,6.00
2023-02-03T12:39:34.387Z,7.80
2023-02-03T12:42:07.536Z,8.30
2023-02-03T12:44:57.317Z,7.53
2023-02-03T12:47:30.233Z,9.60
2023-02-03T12:50:03.440Z,17.13
2023-02-03T12:52:42.482Z,27.63
2023-02-03T12:55:09.051Z,7.00
2023-02-03T12:57:45.106Z,13.60
2023-02-03T13:00:36.860Z,2.30
2023-02-03T13:03:16.429Z,2.60
2023-02-03T13:06:01.277Z,1.90
2023-02-03T13:09:13.316Z,1.60
2023-02-03T13:11:46.545Z,2.13
2023-02-03T13:14:23.081Z,2.47
2023-02-03T13:17:01.655Z,3.30
2023-02-03T13:19:40.803Z,3.83
2023-02-03T13:22:15.430Z,2.20
2023-02-03T13:24:48.780Z,2.13
2023-02-03T13:27:49.017Z,2.60
2023-02-03T13:30:30.024Z,2.57
2023-02-03T13:33:06.604Z,3.57
2023-02-03T13:35:44.260Z,1.53
2023-02-03T13:38:46.306Z,1.00
2023-02-03T13:41:28.108Z,0.90
2023-02-03T13:43:57.223Z,0.97
2023-02-03T13:46:31.210Z,1.60
2023-02-03T13:49:01.257Z,0.90
2023-02-03T13:51:34.641Z,1.03
2023-02-03T13:54:08.797Z,1.93
2023-02-03T13:56:35.721Z,1.00
2023-02-03T13:59:05.981Z,2.60
2023-02-03T14:01:38.942Z,0.90
2023-02-03T14:04:23.529Z,1.73
2023-02-03T14:06:52.342Z,1.30
2023-02-03T14:09:24.172Z,0.83
2023-02-03T14:11:53.384Z,1.40
2023-02-03T14:14:22.409Z,1.83
2023-02-03T14:16:54.535Z,1.67
2023-02-03T14:19:30.216Z,2.97
2023-02-03T14:22:06.840Z,1.20
2023-02-03T14:24:38.350Z,1.37
2023-02-03T14:27:21.995Z,1.10
2023-02-03T14:30:09.442Z,1.23
2023-02-03T14:32:58.361Z,1.20
2023-02-03T14:35:40.130Z,1.30
2023-02-03T14:38:10.723Z,1.20
2023-02-03T14:40:57.717Z,1.07
2023-02-03T14:43:34.709Z,2.30
2023-02-03T14:46:35.376Z,1.40
2023-02-03T14:49:08.113Z,1.40
2023-02-03T14:51:56.594Z,2.17
2023-02-03T14:54:51.555Z,3.23
2023-02-03T14:57:58.488Z,1.23
2023-02-03T15:00:31.604Z,1.20
2023-02-03T15:03:08.848Z,1.40
2023-02-03T15:05:50.209Z,1.77
2023-02-03T15:08:44.152Z,1.23
2023-02-03T15:11:24.529Z,1.90
2023-02-03T15:13:51.609Z,1.50
2023-02-03T15:16:23.611Z,2.10
2023-02-03T15:19:03.112Z,1.77
2023-02-03T15:21:29.558Z,2.40
2023-02-03T15:23:56.061Z,2.37
2023-02-03T15:26:28.643Z,1.70
2023-02-03T15:29:02.490Z,2.20
2023-02-03T15:31:32.366Z,3.03
2023-02-03T15:34:04.434Z,3.43
2023-02-03T15:36:46.955Z,6.73
2023-02-03T15:39:39.242Z,7.83
2023-02-03T15:42:13.114Z,7.83
2023-02-03T15:44:44.193Z,7.80
2023-02-03T15:47:30.116Z,2.33
2023-02-03T15:50:05.876Z,2.60
2023-02-03T15:52:36.969Z,2.77
2023-02-03T15:55:16.987Z,3.97
2023-02-03T15:57:47.622Z,2.73
2023-02-03T16:00:32.035Z,3.23
2023-02-03T16:03:00.233Z,2.70
2023-02-03T16:05:30.874Z,4.73
2023-02-03T16:08:17.938Z,3.73
2023-02-03T16:10:44.519Z,3.20
2023-02-03T16:13:25.268Z,4.33
2023-02-03T16:16:03.573Z,5.47
2023-02-03T16:18:30.080Z,4.00
2023-02-03T16:20:56.916Z,3.33
2023-02-03T16:23:27.403Z,3.97
2023-02-03T16:26:04.559Z,3.43
2023-02-03T16:28:49.712Z,3.13
2023-02-03T16:31:38.131Z,3.60
2023-02-03T16:34:35.722Z,3.00
2023-02-03T16:37:29.785Z,2.60
2023-02-03T16:40:14.778Z,3.23
2023-02-03T16:43:00.084Z,2.33
2023-02-03T16:45:45.200Z,4.57
2023-02-03T16:48:31.314Z,2.40
2023-02-03T16:51:13.399Z,2.63
2023-02-03T16:53:40.461Z,2.10
2023-02-03T16:56:07.215Z,1.97
2023-02-03T16:58:33.721Z,2.07
2023-02-03T17:01:03.705Z,2.83
2023-02-03T17:03:32.710Z,1.93
2023-02-03T17:06:04.579Z,2.20
2023-02-03T17:08:31.126Z,2.07
2023-02-03T17:11:06.445Z,2.80
2023-02-03T17:13:33.557Z,2.20
2023-02-03T17:16:00.336Z,1.93
2023-02-03T17:18:27.241Z,2.00
2023-02-03T17:20:55.067Z,2.40
2023-02-03T17:23:23.489Z,3.00
2023-02-03T17:25:50.516Z,3.27
2023-02-03T17:28:17.680Z,4.00
2023-02-03T17:30:44.370Z,2.67
2023-02-03T17:33:12.247Z,2.17
2023-02-03T17:35:41.114Z,2.50
2023-02-03T17:38:08.419Z,6.70
2023-02-03T17:54:16.570Z,2.43
2023-02-03T17:56:47.323Z,2.20
2023-02-03T17:59:14.330Z,2.20
2023-02-03T18:01:41.400Z,2.43
2023-02-03T18:04:11.620Z,2.60
2023-02-03T18:06:38.442Z,2.87
2023-02-03T18:09:07.099Z,2.30
2023-02-03T18:11:35.281Z,2.13
2023-02-03T18:14:02.325Z,2.43
2023-02-03T18:16:34.764Z,2.53
2023-02-03T18:19:04.482Z,2.40
2023-02-03T18:21:32.391Z,2.10
2023-02-03T18:24:02.015Z,3.33
2023-02-03T18:26:32.429Z,2.60
2023-02-03T18:28:58.920Z,2.37
2023-02-03T18:31:25.480Z,2.70
2023-02-03T18:33:52.450Z,2.20
2023-02-03T18:36:19.677Z,2.00
2023-02-03T18:38:48.053Z,2.20
2023-02-03T18:41:21.154Z,2.70
2023-02-03T18:43:49.256Z,3.60
2023-02-03T18:46:21.635Z,3.03
2023-02-03T18:48:48.454Z,2.63
2023-02-03T18:51:16.663Z,3.20
2023-02-03T18:53:45.018Z,3.40
2023-02-03T18:56:25.145Z,4.27
2023-02-03T18:58:51.807Z,6.37
2023-02-03T19:01:28.057Z,5.40
2023-02-03T19:03:55.986Z,7.07
2023-02-03T19:06:24.063Z,5.77
2023-02-03T19:08:51.215Z,6.40
2023-02-03T19:11:17.694Z,4.43
2023-02-03T19:13:44.501Z,5.50
2023-02-03T19:16:13.385Z,8.43
2023-02-03T19:18:41.063Z,5.97
2023-02-03T19:21:07.589Z,5.43
2023-02-03T19:23:34.072Z,5.57
2023-02-03T19:26:00.592Z,5.97
2023-02-03T19:28:30.955Z,8.60
2023-02-03T19:31:09.173Z,6.27
2023-02-03T19:33:36.748Z,4.17
2023-02-03T19:36:04.556Z,4.07
2023-02-03T19:38:31.328Z,11.57
2023-02-03T19:40:57.922Z,3.97
2023-02-03T19:43:24.949Z,5.60
2023-02-03T19:45:51.740Z,5.80
2023-02-03T19:48:18.300Z,6.03
2023-02-03T19:50:47.305Z,6.43
2023-02-03T19:53:15.339Z,9.53
2023-02-03T19:55:43.331Z,12.77
2023-02-03T19:58:10.388Z,7.30
2023-02-03T20:00:36.863Z,6.53
2023-02-03T20:03:03.635Z,7.53
2023-02-03T20:05:31.185Z,5.47
2023-02-03T20:07:57.771Z,8.57
2023-02-03T20:10:26.276Z,7.43
2023-02-03T20:12:54.283Z,7.87
2023-02-03T20:15:21.566Z,7.80
2023-02-03T20:17:48.127Z,9.77
2023-02-03T20:20:16.056Z,7.90
2023-02-03T20:22:42.692Z,7.17
2023-02-03T20:25:10.253Z,7.93
2023-02-03T20:27:36.860Z,7.50
2023-02-03T20:30:04.077Z,7.63
2023-02-03T20:32:31.128Z,7.43
2023-02-03T20:34:57.754Z,8.37
2023-02-03T20:37:24.426Z,8.80
2023-02-03T20:39:50.949Z,7.40
2023-02-03T20:42:17.959Z,9.80
2023-02-03T20:44:44.992Z,6.53
2023-02-03T20:47:13.360Z,6.13
2023-02-03T20:49:40.079Z,7.27
2023-02-03T20:52:18.271Z,7.47
2023-02-03T20:54:45.204Z,8.13
2023-02-03T20:57:17.589Z,6.73
2023-02-03T20:59:45.018Z,7.50
2023-02-03T21:02:31.824Z,7.53
2023-02-03T21:04:59.760Z,5.63
2023-02-03T21:07:30.504Z,8.13
2023-02-03T21:09:58.824Z,6.87
2023-02-03T21:12:28.066Z,6.57
2023-02-03T21:14:55.089Z,8.10
2023-02-03T21:17:26.682Z,6.97
2023-02-03T21:19:54.834Z,7.40
2023-02-03T21:22:26.510Z,8.10
2023-02-03T21:25:00.049Z,8.70
2023-02-03T21:27:31.960Z,7.70
2023-02-03T21:30:00.847Z,6.30
2023-02-03T21:32:38.366Z,6.03
2023-02-03T21:35:24.081Z,7.10
2023-02-03T21:37:56.940Z,7.30
2023-02-03T21:40:26.390Z,7.63
2023-02-03T21:42:53.981Z,7.53
2023-02-03T21:45:35.649Z,7.00
2023-02-03T21:48:23.961Z,8.03
2023-02-03T21:50:51.128Z,8.43
2023-02-03T21:53:27.998Z,9.77
2023-02-03T21:55:55.071Z,7.17
2023-02-03T21:58:30.126Z,9.90
2023-02-03T22:00:58.834Z,7.40
2023-02-03T22:03:27.100Z,7.40
2023-02-03T22:06:34.779Z,7.60
2023-02-03T22:09:01.286Z,8.43
2023-02-03T22:11:29.513Z,7.37
2023-02-03T22:13:57.262Z,8.97
2023-02-03T22:16:25.270Z,8.30
2023-02-03T22:18:52.152Z,10.00
2023-02-03T22:21:18.873Z,7.87
2023-02-03T22:23:45.613Z,9.00
2023-02-03T22:26:13.193Z,9.57
2023-02-03T22:28:40.634Z,9.77
2023-02-03T22:31:08.583Z,9.20
2023-02-03T22:33:35.769Z,11.10
2023-02-03T22:36:03.328Z,10.47
2023-02-03T22:38:31.062Z,9.50
2023-02-03T22:40:57.517Z,11.97
2023-02-03T22:43:24.470Z,9.33
2023-02-03T22:45:51.268Z,10.30
2023-02-03T22:48:17.736Z,11.10
2023-02-03T22:50:44.168Z,10.40
2023-02-03T22:53:10.660Z,10.17
2023-02-03T22:55:37.872Z,12.20
2023-02-03T22:58:05.272Z,9.90
2023-02-03T23:00:32.605Z,11.30
2023-02-03T23:02:59.628Z,9.40
2023-02-03T23:05:26.666Z,12.27
2023-02-03T23:07:53.777Z,10.60
2023-02-03T23:10:23.522Z,10.23
2023-02-03T23:12:50.244Z,11.83
2023-02-03T23:15:18.181Z,11.17
2023-02-03T23:17:45.319Z,11.40
2023-02-03T23:20:13.465Z,11.93
2023-02-03T23:22:39.905Z,10.53
2023-02-03T23:25:06.808Z,14.30
2023-02-03T23:27:33.225Z,11.00
2023-02-03T23:29:59.704Z,10.57
2023-02-03T23:32:26.148Z,11.63
2023-02-03T23:35:11.409Z,10.83
2023-02-03T23:37:37.892Z,11.80
2023-02-03T23:40:06.159Z,11.37
2023-02-03T23:42:32.658Z,9.77
2023-02-03T23:44:59.183Z,11.80
2023-02-03T23:47:25.673Z,10.10
2023-02-03T23:49:52.067Z,10.00
2023-02-03T23:52:18.529Z,11.77
2023-02-03T23:54:45.203Z,11.90
2023-02-03T23:57:11.698Z,10.77
2023-02-03T23:59:38.146Z,10.47
